• Join FlightAware (Why Join?)
  • Login
  • US Flag 
Rudolph Flight #1: Arrived! 
03:45AM EST


 

Airport Tracker/Info


-or-


 

Live Flight TrackerFlight Track Log ✈ BAW826 ✈ 15-May-2013 ✈ EGLL / LHR - EIDW / DUB

Flight Track Log - Related Links

Times and Time Zones

All times are in EDT time to prevent confusion due to time zone crossing. See the BAW826 flight status page for this flight to view local times or setup timezone preferences in your user account.

Time Position Orientation Groundspeed Altitude Reporting Facility
EDT Latitude Longitude Course Direction KTS MPH feet Rate Location/Type
05:02PM 51.4648 -0.4889 90° East 163 188 1,700  Level FlightAware ADS-B
05:02PM 51.4649 -0.5040 271° West 176 203 2,100 -1,560 Climbing FlightAware ADS-B
05:02PM 51.4647 -0.5260 271° West 196 226 1,000 1,980 Descending FlightAware UK
05:02PM 51.4646 -0.5251 271° West 198 228 2,600 7,980 Climbing FlightAware ADS-B
05:02PM 51.4644 -0.5478 269° West 222 255 3,000 -1,020 Climbing FlightAware ADS-B
05:03PM 51.4643 -0.5755 269° West 248 285 2,100 2,760 Descending FlightAware UK
05:03PM 51.4643 -0.5738 269° West 242 278 3,700 9,720 Climbing FlightAware ADS-B
05:03PM 51.4640 -0.6034 269° West 254 292 4,700 3,660 Climbing FlightAware ADS-B
05:03PM 51.4637 -0.6132 267° West 255 293 5,000 3,600 Climbing FlightAware ADS-B
05:03PM 51.4631 -0.6223 264° West 257 296 5,300 4,500 Climbing FlightAware ADS-B
05:03PM 51.4624 -0.6284 260° West 257 296 5,600 4,380 Climbing FlightAware ADS-B
05:03PM 51.4591 -0.6504 256° West 259 298 6,400 4,140 Climbing FlightAware ADS-B
05:03PM 51.4558 -0.6709 255° West 261 300 7,200 4,080 Climbing FlightAware ADS-B
05:04PM 51.4546 -0.6802 258° West 264 304 7,500 3,720 Climbing FlightAware ADS-B
05:04PM 51.4541 -0.6869 263° West 266 306 7,700 3,000 Climbing FlightAware ADS-B
05:04PM 51.4536 -0.7000 267° West 272 313 8,000 3,540 Climbing FlightAware ADS-B
05:04PM 51.4533 -0.7308 269° West 275 316 9,000 1,380 Climbing FlightAware ADS-B
05:04PM 51.4535 -0.7731 269° West 286 329 8,800 3,960 Descending FlightAware UK
05:04PM 51.4535 -0.7736 269° West 277 319 10,400 3,000 Climbing FlightAware ADS-B
05:05PM 51.4536 -0.8099 269° West 298 343 9,700 2,100 Descending FlightAware UK
05:05PM 51.4533 -0.8414 269° West 312 359 11,500 5,400 Climbing FlightAware ADS-B
05:05PM 51.4536 -0.8572 272° West 321 369 11,700 2,280 Climbing FlightAware ADS-B
05:05PM 51.4548 -0.8712 278° West 326 375 12,000 2,820 Climbing FlightAware ADS-B
05:05PM 51.4593 -0.8971 286° West 332 382 12,500 -1,620 Climbing FlightAware ADS-B
05:06PM 51.4680 -0.9356 286° West 336 387 11,300 960 Descending FlightAware UK
05:06PM 51.4755 -0.9684 286° West 333 383 13,000 960 Climbing FlightAware ADS-B
05:06PM 51.4872 -1.0187 286° West 342 394 11,900 1,800 Descending FlightAware UK
05:06PM 51.4916 -1.0386 286° West 343 395 13,900 2,580 Climbing FlightAware ADS-B
05:07PM 51.5032 -1.0898 286° West 346 398 13,200 1,980 Descending FlightAware UK
05:07PM 51.5074 -1.1098 286° West 341 392 14,900 600 Climbing FlightAware ADS-B
05:07PM 51.5190 -1.1613 286° West 350 403 13,500 180 Descending FlightAware UK
05:07PM 51.5236 -1.1830 286° West 343 395 15,000  Climbing FlightAware ADS-B
05:08PM 51.5347 -1.2331 286° West 350 403 13,500  Descending FlightAware UK
05:08PM 51.5398 -1.2569 286° West 348 400 15,000 780 Climbing FlightAware ADS-B
05:08PM 51.5508 -1.3065 286° West 358 412 13,900 1,800 Descending FlightAware UK
05:08PM 51.5562 -1.3310 286° West 349 402 15,900 2,580 Climbing FlightAware ADS-B
05:09PM 51.5671 -1.3797 286° West 360 414 15,200 2,580 Descending FlightAware UK
05:09PM 51.5727 -1.4057 286° West 358 412 17,200 2,400 Climbing FlightAware ADS-B
05:09PM 51.5838 -1.4556 286° West 364 419 16,400 2,460 Descending FlightAware UK
05:09PM 51.5901 -1.4846 286° West 370 426 18,500 2,580 Climbing FlightAware ADS-B
05:10PM 51.6008 -1.5330 286° West 374 430 17,700 2,580 Descending FlightAware UK
05:10PM 51.6074 -1.5632 286° West 375 432 19,800 2,580 Climbing FlightAware ADS-B
05:10PM 51.6181 -1.6119 286° West 380 437 19,000 2,460 Descending FlightAware UK
05:10PM 51.6250 -1.6436 286° West 381 438 21,100 2,160 Climbing FlightAware ADS-B
05:11PM 51.6357 -1.6923 286° West 386 444 20,100 1,980 Descending FlightAware UK
05:11PM 51.6427 -1.7254 286° West 391 450 22,100 2,160 Climbing FlightAware ADS-B
05:11PM 51.6536 -1.7750 286° West 392 451 21,200 1,980 Descending FlightAware UK
05:11PM 51.6606 -1.8083 286° West 398 458 23,100 1,860 Climbing FlightAware ADS-B
05:12PM 51.6717 -1.8582 286° West 398 458 22,100 1,800 Descending FlightAware UK
05:12PM 51.6793 -1.8948 286° West 408 470 24,000 1,740 Climbing FlightAware ADS-B
05:12PM 51.6903 -1.9451 286° West 404 465 23,000 2,100 Descending FlightAware UK
05:12PM 51.6981 -1.9826 286° West 411 473 25,100 5,580 Climbing FlightAware ADS-B
05:13PM 51.7084 -2.0296 290° West 412 474 25,800 2,400 Climbing FlightAware ADS-B
05:13PM 51.7163 -2.0594 293° West 411 473 26,200 -1,500 Climbing FlightAware ADS-B
05:13PM 51.7350 -2.1130 293° West 410 472 25,100 1,200 Descending FlightAware UK
05:13PM 51.7453 -2.1421 293° West 428 493 26,800 960 Climbing FlightAware ADS-B
05:14PM 51.7650 -2.1957 293° West 426 490 25,600 1,500 Descending FlightAware UK
05:14PM 51.7761 -2.2264 293° West 434 499 27,600 1,980 Climbing FlightAware ADS-B
05:14PM 51.7954 -2.2788 293° West 432 497 26,600 1,980 Descending FlightAware UK
05:14PM 51.8074 -2.3122 293° West 436 502 28,600 1,980 Climbing FlightAware ADS-B
05:15PM 51.8263 -2.3633 293° West 438 504 27,600 1,500 Descending FlightAware UK
05:15PM 51.8384 -2.3975 293° West 438 504 29,400 1,200 Climbing FlightAware ADS-B
05:15PM 51.8568 -2.4473 293° West 444 511 28,200 1,380 Descending FlightAware UK
05:15PM 51.8695 -2.4834 293° West 445 512 30,100 1,380 Climbing FlightAware ADS-B
05:16PM 51.8877 -2.5334 293° West 452 520 28,900 -1,260 Descending FlightAware UK
05:16PM 51.9063 -2.5860 300° West 456 525 29,400 6,000 Climbing FlightAware UK
05:16PM 51.9109 -2.5992 300° West 445 512 31,300 2,220 Climbing FlightAware ADS-B
05:16PM 51.9310 -2.6548 300° West 450 518 30,300 1,560 Descending FlightAware UK
05:16PM 51.9418 -2.6855 300° West 445 512 32,100 1,200 Climbing FlightAware ADS-B
05:17PM 51.9620 -2.7410 300° West 452 520 30,900 1,200 Descending FlightAware UK
05:17PM 51.9720 -2.7710 300° West 448 516 32,800 1,620 Climbing FlightAware
05:17PM 51.9807 -2.7931 300° West 450 518 31,400 -3,000 Descending FlightAware UK
05:17PM 51.9991 -2.8449 300° West 452 520 31,800 4,620 Climbing FlightAware UK
05:18PM 52.0072 -2.8690 300° West 449 517 33,500 1,500 Climbing FlightAware ADS-B
05:18PM 52.0238 -2.9150 300° West 450 518 32,400 1,140 Descending FlightAware UK
05:18PM 52.0397 -2.9607 300° West 456 525 34,100 960 Climbing FlightAware ADS-B
05:18PM 52.0614 -3.0215 300° West 458 527 33,000 1,620 Descending FlightAware UK
05:19PM 52.0736 -3.0569 300° West 454 522 35,000 1,560 Climbing FlightAware ADS-B
05:19PM 52.0925 -3.1098 300° West 454 522 33,800 1,560 Descending FlightAware UK
05:19PM 52.1048 -3.1454 300° West 449 517 35,800 1,380 Climbing FlightAware ADS-B
05:19PM 52.1234 -3.1981 300° West 448 516 34,500 360 Descending FlightAware UK
05:20PM 52.1354 -3.2329 300° West 443 510 36,000  Climbing FlightAware ADS-B
05:20PM 52.1536 -3.2841 300° West 448 516 34,500  Descending FlightAware UK
05:20PM 52.1660 -3.3200 300° West 447 514 36,000  Climbing FlightAware ADS-B
05:20PM 52.1841 -3.3714 300° West 452 520 34,500  Descending FlightAware UK
05:21PM 52.1970 -3.4093 300° West 448 516 36,000 -240 Climbing FlightAware ADS-B
05:21PM 52.2145 -3.4595 300° West 452 520 34,400 -420 Descending FlightAware UK
05:21PM 52.2280 -3.4985 300° West 452 520 35,800 -1,260 Climbing FlightAware ADS-B
05:21PM 52.2450 -3.5475 300° West 452 520 33,800 -1,920 Descending FlightAware UK
05:22PM 52.2603 -3.5924 300° West 447 514 34,800 -2,040 Climbing FlightAware ADS-B
05:22PM 52.2817 -3.6538 300° West 450 518 32,600 -1,800 Descending FlightAware UK
05:22PM 52.2901 -3.6796 300° West 442 509 33,900 -1,800 Climbing FlightAware ADS-B
05:22PM 52.3114 -3.7405 300° West 450 518 31,700 -2,160 Descending FlightAware UK
05:23PM 52.3218 -3.7715 300° West 439 505 32,800 -2,040 Climbing FlightAware ADS-B
05:23PM 52.3409 -3.8268 300° West 444 511 30,700 -1,800 Descending FlightAware UK
05:23PM 52.3521 -3.8602 300° West 436 502 31,900 -1,800 Climbing FlightAware ADS-B
05:23PM 52.3702 -3.9125 300° West 440 506 29,800 -2,100 Descending FlightAware UK
05:24PM 52.3833 -3.9513 300° West 438 504 30,800 -2,220 Climbing FlightAware ADS-B
05:24PM 52.3998 -3.9997 300° West 440 506 28,700 -2,040 Descending FlightAware UK
05:24PM 52.4124 -4.0373 300° West 427 491 29,800 -1,800 Climbing FlightAware ADS-B
05:24PM 52.4284 -4.0840 300° West 434 499 27,800 -1,800 Descending FlightAware UK
05:25PM 52.4415 -4.1235 300° West 414 476 28,900 -1,860 Climbing FlightAware ADS-B
05:25PM 52.4615 -4.1820 300° West 426 490 26,700 -4,620 Descending FlightAware UK
05:25PM 52.4775 -4.2296 299° West 420 483 26,000 1,980 Descending FlightAware UK
05:25PM 52.4788 -4.2338 299° West 399 459 27,400 -2,700 Climbing FlightAware ADS-B
05:26PM 52.4936 -4.2770 299° West 418 481 25,200 -5,280 Descending FlightAware UK
05:26PM 52.5094 -4.3241 299° West 416 479 24,500 540 Descending FlightAware UK
05:26PM 52.5180 -4.3520 299° West 402 463 25,500 -3,000 Climbing FlightAware
05:26PM 52.5256 -4.3728 299° West 420 483 23,600 -9,600 Descending FlightAware UK
05:26PM 52.5360 -4.4044 299° West 418 481 23,100 -2,640 Descending FlightAware UK
05:27PM 52.5521 -4.4528 299° West 416 479 22,300 -2,700 Descending FlightAware UK
05:27PM 52.5683 -4.5012 299° West 416 479 21,500 2,160 Descending FlightAware UK
05:27PM 52.5660 -4.4950 299° West 405 466 23,100 -2,520 Climbing FlightAware
05:27PM 52.5896 -4.5654 299° West 410 472 20,500 -5,400 Descending FlightAware UK
05:28PM 52.6056 -4.6138 299° West 406 467 19,700 2,700 Descending FlightAware UK
05:28PM 52.6020 -4.6010 299° West 400 460 21,400 -2,700 Climbing FlightAware
05:28PM 52.6218 -4.6624 299° West 402 463 18,900 -5,160 Descending FlightAware UK
05:28PM 52.6371 -4.7087 299° West 398 458 18,500 3,000 Descending FlightAware UK
05:28PM 52.6390 -4.7150 299° West 391 450 20,100 -300 Climbing FlightAware
05:29PM 52.6597 -4.7686 299° West 398 458 18,400 -3,000 Descending FlightAware UK
05:29PM 52.6796 -4.8111 308° West 394 453 18,300 3,060 Descending FlightAware UK
05:29PM 52.6860 -4.8250 308° West 386 444 19,800 -1,500 Climbing FlightAware
05:29PM 52.7077 -4.8631 308° West 388 447 17,700 -5,280 Descending FlightAware UK
05:30PM 52.7297 -4.9011 314° West 388 447 16,900 1,440 Descending FlightAware UK
05:30PM 52.7330 -4.9070 314° West 378 435 18,300 -2,520 Climbing FlightAware
05:30PM 52.7585 -4.9512 314° West 378 435 15,900 -4,500 Descending FlightAware UK
05:30PM 52.7794 -4.9878 313° West 362 417 15,700 2,520 Descending FlightAware UK
05:31PM 52.7870 -5.0010 313° West 354 407 17,100 -1,200 Climbing FlightAware
05:31PM 52.8119 -5.0456 313° West 342 394 15,100 -4,320 Descending FlightAware UK
05:31PM 52.8309 -5.0799 312° West 336 387 14,400 2,700 Descending FlightAware UK
05:31PM 52.8300 -5.0770 312° West 338 389 16,000 -2,040 Climbing FlightAware
05:32PM 52.8499 -5.1143 312° West 334 384 13,800 -4,980 Descending FlightAware UK
05:32PM 52.8689 -5.1483 313° West 332 382 13,200 3,120 Descending FlightAware UK
05:32PM 52.8670 -5.1440 313° West 333 383 14,800 -1,680 Climbing FlightAware
05:32PM 52.8876 -5.1817 313° West 330 380 12,700 -4,680 Descending FlightAware UK
05:32PM 52.9061 -5.2153 313° West 326 375 12,100 1,080 Descending FlightAware UK
05:33PM 52.9150 -5.2310 312° West 325 374 13,300 -2,040 Climbing FlightAware
05:33PM 52.9244 -5.2485 312° West 322 371 11,500 -8,820 Descending FlightAware UK
05:33PM 52.9363 -5.2700 312° West 322 371 11,100 -1,620 Descending FlightAware UK
05:33PM 52.9545 -5.3027 313° West 318 366 10,700 2,400 Descending FlightAware UK
05:33PM 52.9570 -5.3080 313° West 319 367 12,100 -1,500 Climbing FlightAware
05:34PM 52.9779 -5.3453 313° West 314 361 10,100 -3,780 Descending FlightAware UK
05:34PM 52.9945 -5.3754 312° West 300 345 9,900 -840 Descending FlightAware UK
05:34PM 53.0108 -5.4049 312° West 292 336 9,600 3,600 Descending FlightAware UK
05:34PM 53.0090 -5.4010 312° West 287 330 11,100 -1,380 Climbing FlightAware
05:35PM 53.0267 -5.4336 312° West 290 334 9,200 -3,900 Descending FlightAware UK
05:35PM 53.0423 -5.4618 313° West 284 327 8,900 1,920 Descending FlightAware UK
05:35PM 53.0510 -5.4770 313° West 270 311 10,300 -1,020 Climbing FlightAware
05:35PM 53.0754 -5.5126 313° West 274 315 8,300 -1,200 Descending FlightAware UK
05:36PM 53.0760 -5.5130 313° West 268 308 9,800 -1,020 Climbing FlightAware
05:36PM 53.0988 -5.5406 313° West 264 304 7,900 -1,020 Descending FlightAware UK
05:36PM 53.1050 -5.5500 313° West 254 292 9,300 -1,200 Climbing FlightAware
05:36PM 53.1260 -5.5781 313° West 254 292 7,300 -1,440 Descending FlightAware UK
05:36PM 53.1280 -5.5810 313° West 252 290 8,700 -1,500 Climbing FlightAware
05:37PM 53.1477 -5.6073 313° West 254 292 6,700 -1,440 Descending FlightAware UK
05:37PM 53.1550 -5.6170 313° West 253 291 8,000 -1,440 Climbing FlightAware
05:37PM 53.1749 -5.6435 313° West 256 295 6,000 -1,440 Descending FlightAware UK
05:37PM 53.1780 -5.6470 313° West 251 289 7,400 3,000 Climbing FlightAware
05:38PM 53.1910 -5.6640 313° West 249 287 7,100 -7,080 Descending FlightAware
05:38PM 53.1970 -5.6728 313° West 254 292 5,400 -6,600 Descending FlightAware UK
05:38PM 53.2134 -5.6942 313° West 254 292 4,900 1,920 Descending FlightAware UK
05:38PM 53.2190 -5.7010 313° West 248 285 6,300 -1,440 Climbing FlightAware
05:38PM 53.2402 -5.7299 313° West 254 292 4,200 -1,440 Descending FlightAware UK
05:39PM 53.2460 -5.7370 313° West 245 282 5,600 -1,440 Climbing FlightAware
05:39PM 53.2670 -5.7658 313° West 252 290 3,500 -960 Descending FlightAware UK
05:39PM 53.2670 -5.7650 313° West 231 266 5,200 2,220 Climbing FlightAware
05:40PM 53.2920 -5.7990 321° Northwest 225 259 4,800 -660 Descending FlightAware
05:40PM 53.3120 -5.8250 322° Northwest 211 243 4,600 -600 Descending FlightAware
05:40PM 53.3350 -5.8550 322° Northwest 208 239 4,300 -540 Descending FlightAware
05:41PM 53.3560 -5.8880 317° Northwest 206 237 4,100 -480 Descending FlightAware
05:41PM 53.3670 -5.9230 298° West 202 232 3,900 -600 Descending FlightAware
05:42PM 53.3730 -5.9450 295° West 201 231 3,700 -900 Descending FlightAware
05:42PM 53.3830 -5.9800 296° West 202 232 3,300 -1,020 Descending FlightAware
05:43PM 53.3950 -6.0220 296° West 199 229 2,800 -900 Descending FlightAware
05:43PM 53.4060 -6.0650 293° West 197 227 2,400 -480 Descending FlightAware
05:43PM 53.4110 -6.1000 283° West 165 190 2,400 -480 Level FlightAware
05:44PM 53.4140 -6.1340 278° West 138 159 2,000 -840 Descending FlightAware
05:44PM 53.4160 -6.1640 276° West 128 147 1,600 -780 Descending FlightAware
05:45PM 53.4170 -6.1900 274° West 125 144 1,300 -660 Descending FlightAware
05:45PM 53.4190 -6.2160 277° West 122 140 1,000 -420 Descending FlightAware
05:46PM 53.4200 -6.2480 273° West 121 139 900 -180 Descending FlightAware
05:49PM 53.4213 -6.2701 276° West  Level Estimated
05:50PM 53.4213 -6.2701 45° Northeast  Level Estimated
05:51PM 53.4213 -6.2701 315° West  Level Estimated
05:52PM 53.4213 -6.2701 45° Northeast  Level Estimated
05:53PM 53.4213 -6.2701 315° West  Level Estimated
05:54PM 53.4213 -6.2701 45° Northeast  Level Estimated
05:55PM 53.4213 -6.2701 315° West  Level Estimated
05:56PM 53.4213 -6.2701 45° Northeast  Level Estimated
05:57PM 53.4213 -6.2701 315° West  Level Estimated
05:58PM 53.4213 -6.2701 45° Northeast  Level Estimated
05:59PM 53.4213 -6.2701 315° West  Level Estimated
06:00PM 53.4213 -6.2701 45° Northeast  Level Estimated